createdAt,value
2019-03-03T00:00:00.053Z,7.33
2019-03-03T00:04:05.410Z,7.13
2019-03-03T00:08:10.240Z,7.17
2019-03-03T00:12:14.461Z,7.77
2019-03-03T00:16:19.874Z,8.77
2019-03-03T00:20:24.396Z,7.93
2019-03-03T00:24:28.818Z,8.07
2019-03-03T00:28:33.008Z,6.77
2019-03-03T00:32:37.247Z,7.30
2019-03-03T00:36:59.314Z,7.77
2019-03-03T00:41:21.416Z,7.63
2019-03-03T00:45:38.784Z,7.80
2019-03-03T00:49:59.800Z,7.53
2019-03-03T00:54:35.147Z,6.70
2019-03-03T00:58:59.460Z,7.63
2019-03-03T01:03:09.546Z,7.27
2019-03-03T01:07:32.702Z,8.00
2019-03-03T01:12:04.855Z,7.87
2019-03-03T01:16:18.410Z,8.27
2019-03-03T01:20:28.208Z,6.83
2019-03-03T01:24:57.638Z,7.03
2019-03-03T01:29:01.880Z,6.83
2019-03-03T01:33:06.096Z,7.47
2019-03-03T01:37:10.314Z,6.77
2019-03-03T01:41:14.548Z,7.30
2019-03-03T01:45:18.730Z,6.97
2019-03-03T01:49:22.942Z,6.30
2019-03-03T01:53:27.162Z,6.20
2019-03-03T01:57:31.422Z,6.77
2019-03-03T02:01:36.124Z,7.10
2019-03-03T02:05:40.375Z,6.70
2019-03-03T02:09:44.624Z,6.97
2019-03-03T02:13:48.967Z,7.40
2019-03-03T02:17:53.433Z,7.10
2019-03-03T02:21:57.992Z,6.83
2019-03-03T02:26:02.977Z,7.03
2019-03-03T02:30:12.424Z,7.87
2019-03-03T02:34:16.720Z,6.93
2019-03-03T02:38:20.918Z,7.03
2019-03-03T02:42:25.148Z,7.90
2019-03-03T02:46:29.338Z,7.90
2019-03-03T02:50:33.534Z,7.57
2019-03-03T02:54:37.889Z,7.93
2019-03-03T02:58:42.139Z,7.20
2019-03-03T03:02:50.751Z,6.27
2019-03-03T03:11:23.717Z,7.00
2019-03-03T03:15:46.035Z,5.93
2019-03-03T03:19:59.595Z,6.10
2019-03-03T03:24:28.943Z,6.90
2019-03-03T03:28:58.034Z,5.67
2019-03-03T03:33:18.703Z,5.77
2019-03-03T03:37:32.204Z,6.00
2019-03-03T03:41:44.845Z,5.90
2019-03-03T03:46:06.751Z,5.90
2019-03-03T03:50:23.608Z,5.70
2019-03-03T03:54:45.723Z,5.87
2019-03-03T03:59:07.797Z,7.33
2019-03-03T04:03:29.749Z,7.50
2019-03-03T04:08:02.133Z,7.00
2019-03-03T04:12:24.466Z,8.03
2019-03-03T04:16:34.740Z,5.20
2019-03-03T04:21:06.840Z,5.60
2019-03-03T04:25:18.464Z,6.00
2019-03-03T04:29:32.017Z,5.17
2019-03-03T04:33:47.776Z,5.37
2019-03-03T04:38:05.144Z,4.90
2019-03-03T04:42:19.164Z,4.60
2019-03-03T04:46:41.299Z,3.70
2019-03-03T04:50:57.955Z,3.27
2019-03-03T04:55:19.937Z,3.27
2019-03-03T04:59:43.029Z,2.80
2019-03-03T05:04:00.458Z,3.17
2019-03-03T05:08:21.977Z,3.33
2019-03-03T05:12:57.015Z,3.07
2019-03-03T05:17:08.738Z,2.97
2019-03-03T05:21:13.098Z,2.80
2019-03-03T05:25:17.317Z,2.50
2019-03-03T05:29:21.555Z,2.87
2019-03-03T05:37:29.077Z,2.93
2019-03-03T05:41:33.310Z,2.43
2019-03-03T05:45:37.581Z,2.00
2019-03-03T05:49:41.780Z,2.07
2019-03-03T05:53:46.001Z,1.80
2019-03-03T05:57:50.592Z,1.77
2019-03-03T06:01:54.784Z,1.63
2019-03-03T06:05:59.025Z,1.60
2019-03-03T06:10:03.252Z,1.57
2019-03-03T06:14:07.906Z,1.50
2019-03-03T06:18:12.542Z,1.47
2019-03-03T06:22:16.768Z,1.37
2019-03-03T06:26:20.997Z,1.70
2019-03-03T06:30:25.643Z,1.57
2019-03-03T06:34:29.873Z,2.00
2019-03-03T06:38:34.108Z,1.67
2019-03-03T06:42:38.747Z,1.90
2019-03-03T06:46:42.928Z,1.97
2019-03-03T06:50:47.157Z,1.93
2019-03-03T06:54:51.362Z,1.70
2019-03-03T06:58:55.642Z,1.97
2019-03-03T07:02:59.829Z,2.10
2019-03-03T07:07:04.417Z,1.90
2019-03-03T07:11:10.121Z,2.07
2019-03-03T07:15:15.916Z,2.13
2019-03-03T07:19:20.161Z,1.90
2019-03-03T07:23:24.366Z,1.70
2019-03-03T07:27:28.597Z,1.80
2019-03-03T07:31:32.776Z,1.63
2019-03-03T07:35:36.979Z,2.13
2019-03-03T07:39:41.211Z,1.40
2019-03-03T07:43:45.450Z,2.20
2019-03-03T07:47:49.624Z,1.87
2019-03-03T07:51:53.884Z,2.47
2019-03-03T07:55:58.175Z,2.17
2019-03-03T08:00:02.370Z,1.83
2019-03-03T08:04:06.603Z,2.07
2019-03-03T08:08:10.844Z,1.53
2019-03-03T08:12:15.080Z,1.67
2019-03-03T08:16:19.324Z,1.80
2019-03-03T08:20:23.678Z,1.70
2019-03-03T08:24:27.876Z,1.80
2019-03-03T08:28:32.189Z,1.57
2019-03-03T08:32:36.588Z,1.33
2019-03-03T08:36:40.825Z,1.67
2019-03-03T08:40:45.203Z,1.77
2019-03-03T08:45:08.401Z,1.60
2019-03-03T08:49:40.900Z,1.87
2019-03-03T08:53:53.525Z,1.60
2019-03-03T08:58:15.139Z,1.50
2019-03-03T09:02:38.508Z,1.20
2019-03-03T09:06:59.580Z,1.73
2019-03-03T09:11:21.922Z,1.83
2019-03-03T09:16:03.530Z,1.50
2019-03-03T09:20:30.834Z,1.73
2019-03-03T09:25:03.273Z,1.50
2019-03-03T09:29:26.935Z,1.20
2019-03-03T09:33:42.889Z,1.67
2019-03-03T09:38:00.439Z,1.53
2019-03-03T09:42:22.497Z,1.37
2019-03-03T09:46:33.354Z,1.20
2019-03-03T09:50:54.025Z,1.27
2019-03-03T09:55:32.352Z,1.40
2019-03-03T10:00:10.621Z,1.40
2019-03-03T10:04:46.022Z,1.60
2019-03-03T10:09:24.419Z,1.50
2019-03-03T10:13:38.179Z,1.97
2019-03-03T10:18:08.056Z,1.50
2019-03-03T10:22:34.083Z,1.50
2019-03-03T10:27:03.635Z,1.50
2019-03-03T10:31:30.019Z,2.03
2019-03-03T10:36:03.484Z,1.80
2019-03-03T10:40:34.591Z,1.40
2019-03-03T10:45:01.078Z,1.57
2019-03-03T10:49:15.133Z,1.47
2019-03-03T10:53:29.083Z,1.20
2019-03-03T10:58:03.939Z,1.00
2019-03-03T11:02:20.395Z,1.00
2019-03-03T11:06:54.751Z,1.10
2019-03-03T11:11:13.860Z,1.00
2019-03-03T11:15:40.336Z,1.10
2019-03-03T11:20:03.315Z,0.80
2019-03-03T11:24:22.465Z,1.23
2019-03-03T11:28:49.716Z,0.97
2019-03-03T11:33:16.318Z,1.10
2019-03-03T11:37:42.574Z,1.10
2019-03-03T11:42:24.415Z,1.10
2019-03-03T11:46:38.841Z,1.30
2019-03-03T11:50:57.633Z,1.00
2019-03-03T11:55:19.886Z,0.90
2019-03-03T12:03:59.126Z,1.00
2019-03-03T12:08:28.399Z,0.70
2019-03-03T12:12:45.033Z,0.87
2019-03-03T12:17:07.573Z,1.10
2019-03-03T12:21:21.661Z,0.90
2019-03-03T12:25:54.047Z,0.90
2019-03-03T12:30:20.448Z,0.80
2019-03-03T12:34:43.922Z,0.60
2019-03-03T12:39:10.002Z,0.60
2019-03-03T12:43:42.552Z,0.77
2019-03-03T12:48:05.876Z,0.60
2019-03-03T12:52:20.265Z,0.70
2019-03-03T12:56:40.497Z,0.87
2019-03-03T13:01:02.880Z,0.77
2019-03-03T13:05:23.229Z,0.63
2019-03-03T13:09:40.884Z,0.70
2019-03-03T13:13:55.386Z,0.80
2019-03-03T13:18:25.824Z,0.60
2019-03-03T13:22:42.024Z,0.70
2019-03-03T13:27:05.273Z,0.70
2019-03-03T13:31:18.857Z,0.70
2019-03-03T13:35:53.190Z,0.70
2019-03-03T13:40:29.978Z,0.73
2019-03-03T13:44:34.760Z,0.80
2019-03-03T13:48:39.952Z,0.70
2019-03-03T13:52:45.730Z,0.80
2019-03-03T13:56:50.833Z,1.00
2019-03-03T14:00:55.775Z,0.70
2019-03-03T14:05:00.786Z,0.70
2019-03-03T14:09:07.829Z,0.70
2019-03-03T14:13:13.238Z,0.60
2019-03-03T14:17:18.486Z,0.80
2019-03-03T14:21:23.129Z,0.70
2019-03-03T14:25:28.613Z,0.73
2019-03-03T14:29:33.507Z,0.60
2019-03-03T14:33:38.596Z,0.90
2019-03-03T14:37:43.354Z,0.60
2019-03-03T14:41:47.667Z,0.60
2019-03-03T14:45:51.902Z,0.70
2019-03-03T14:49:56.249Z,0.60
2019-03-03T14:54:00.511Z,0.60
2019-03-03T14:58:04.792Z,0.67
2019-03-03T15:02:09.542Z,0.70
2019-03-03T15:06:13.856Z,0.70
2019-03-03T15:10:18.717Z,0.70
2019-03-03T15:14:22.946Z,0.43
2019-03-03T15:18:27.221Z,0.60
2019-03-03T15:22:31.437Z,0.70
2019-03-03T15:26:35.697Z,0.60
2019-03-03T15:30:40.012Z,0.50
2019-03-03T15:34:44.233Z,0.43
2019-03-03T15:38:48.477Z,0.37
2019-03-03T15:42:52.944Z,0.50
2019-03-03T15:46:57.182Z,0.40
2019-03-03T15:51:01.446Z,0.50
2019-03-03T15:55:06.790Z,0.40
2019-03-03T15:59:10.975Z,0.50
2019-03-03T16:03:15.259Z,0.53
2019-03-03T16:07:19.471Z,0.47
2019-03-03T16:11:23.804Z,0.57
2019-03-03T16:15:28.181Z,0.60
2019-03-03T16:19:32.559Z,0.60
2019-03-03T16:23:36.925Z,0.70
2019-03-03T16:27:42.160Z,0.60
2019-03-03T16:31:46.669Z,0.87
2019-03-03T16:35:51.207Z,0.50
2019-03-03T16:39:55.454Z,0.80
2019-03-03T16:44:01.041Z,0.60
2019-03-03T16:48:05.367Z,0.80
2019-03-03T16:52:09.879Z,1.00
2019-03-03T16:56:14.445Z,1.07
2019-03-03T17:00:20.183Z,1.87
2019-03-03T17:04:24.457Z,2.07
2019-03-03T17:08:28.721Z,1.80
2019-03-03T17:12:33.066Z,2.20
2019-03-03T17:16:37.357Z,2.37
2019-03-03T17:20:41.962Z,2.70
2019-03-03T17:24:46.204Z,2.50
2019-03-03T17:28:51.005Z,3.37
2019-03-03T17:32:55.658Z,3.30
2019-03-03T17:36:59.896Z,3.27
2019-03-03T17:41:04.326Z,2.80
2019-03-03T17:45:11.559Z,3.00
2019-03-03T17:49:15.780Z,2.90
2019-03-03T17:53:20.366Z,2.73
2019-03-03T17:57:25.235Z,2.87
2019-03-03T18:01:29.510Z,3.20
2019-03-03T18:05:33.859Z,3.10
2019-03-03T18:09:38.158Z,3.60
2019-03-03T18:13:42.948Z,3.40
2019-03-03T18:17:47.283Z,3.53
2019-03-03T18:21:51.545Z,2.87
2019-03-03T18:25:55.800Z,3.50
2019-03-03T18:30:00.021Z,3.80
2019-03-03T18:34:04.479Z,3.90
2019-03-03T18:38:08.710Z,3.87
2019-03-03T18:42:12.972Z,3.63
2019-03-03T18:46:17.530Z,3.17
2019-03-03T18:50:21.879Z,3.03
2019-03-03T18:54:26.146Z,3.57
2019-03-03T18:58:30.371Z,4.13
2019-03-03T19:02:34.613Z,4.40
2019-03-03T19:06:38.909Z,3.47
2019-03-03T19:10:43.144Z,3.20
2019-03-03T19:14:47.484Z,3.80
2019-03-03T19:18:53.067Z,3.40
2019-03-03T19:22:57.529Z,3.43
2019-03-03T19:27:02.894Z,3.70
2019-03-03T19:31:07.706Z,3.63
2019-03-03T19:35:12.982Z,4.20
2019-03-03T19:39:17.518Z,4.33
2019-03-03T19:43:21.749Z,4.40
2019-03-03T19:47:26.597Z,4.47
2019-03-03T19:51:31.223Z,5.10
2019-03-03T19:55:35.524Z,4.30
2019-03-03T19:59:40.612Z,4.03
2019-03-03T20:03:44.927Z,4.93
2019-03-03T20:07:49.118Z,4.30
2019-03-03T20:11:53.405Z,4.90
2019-03-03T20:15:57.639Z,4.43
2019-03-03T20:20:01.922Z,4.30
2019-03-03T20:24:07.357Z,4.37
2019-03-03T20:28:12.657Z,4.37
2019-03-03T20:32:17.949Z,4.33
2019-03-03T20:36:22.380Z,4.43
2019-03-03T20:40:27.932Z,4.23
2019-03-03T20:44:39.418Z,4.40
2019-03-03T20:48:46.449Z,4.60
2019-03-03T20:52:52.178Z,4.33
2019-03-03T20:56:57.992Z,4.67
2019-03-03T21:01:05.899Z,4.33
2019-03-03T21:05:11.682Z,5.40
2019-03-03T21:09:16.415Z,4.83
2019-03-03T21:13:20.676Z,5.80
2019-03-03T21:17:25.651Z,5.80
2019-03-03T21:21:30.236Z,5.77
2019-03-03T21:25:35.164Z,5.93
2019-03-03T21:29:39.955Z,5.40
2019-03-03T21:33:44.974Z,5.83
2019-03-03T21:37:49.872Z,6.73
2019-03-03T21:41:57.501Z,6.50
2019-03-03T21:46:02.361Z,6.40
2019-03-03T21:50:10.557Z,6.43
2019-03-03T21:54:18.195Z,5.90
2019-03-03T21:58:22.361Z,5.80
2019-03-03T22:02:26.916Z,5.37
2019-03-03T22:06:32.826Z,5.33
2019-03-03T22:10:42.318Z,6.13
2019-03-03T22:14:46.596Z,5.80
2019-03-03T22:18:51.215Z,5.30
2019-03-03T22:22:58.273Z,5.27
2019-03-03T22:27:03.043Z,5.80
2019-03-03T22:31:08.191Z,5.03
2019-03-03T22:35:14.545Z,4.40
2019-03-03T22:39:18.712Z,5.67
2019-03-03T22:43:24.339Z,5.13
2019-03-03T22:47:27.173Z,5.77
2019-03-03T22:51:30.443Z,5.30
2019-03-03T22:55:40.517Z,5.50
2019-03-03T22:59:45.000Z,5.73
2019-03-03T23:04:09.548Z,5.57
2019-03-03T23:08:28.469Z,4.93
2019-03-03T23:12:45.113Z,5.47
2019-03-03T23:17:44.352Z,5.40
2019-03-03T23:22:22.704Z,5.57
2019-03-03T23:26:28.789Z,5.70
2019-03-03T23:30:34.091Z,5.00
2019-03-03T23:34:40.258Z,5.77
2019-03-03T23:38:44.452Z,5.10
2019-03-03T23:42:48.696Z,5.57
2019-03-03T23:46:52.926Z,5.80
2019-03-03T23:50:57.161Z,5.30
2019-03-03T23:55:01.599Z,5.63
2019-03-03T23:59:08.991Z,5.90
